sensor_id;sensor_type;location;lat;lon;timestamp;P1;durP1;ratioP1;P2;durP2;ratioP2
38427;SDS011;24211;49.980;19.776;2023-09-19T00:01:52;9.85;;;5.47;;
38427;SDS011;24211;49.980;19.776;2023-09-19T00:04:19;8.40;;;5.03;;
38427;SDS011;24211;49.980;19.776;2023-09-19T00:06:50;8.75;;;5.10;;
38427;SDS011;24211;49.980;19.776;2023-09-19T00:09:17;9.73;;;5.20;;
38427;SDS011;24211;49.980;19.776;2023-09-19T00:11:44;9.18;;;5.43;;
38427;SDS011;24211;49.980;19.776;2023-09-19T00:14:14;10.50;;;5.82;;
38427;SDS011;24211;49.980;19.776;2023-09-19T00:16:41;9.65;;;5.60;;
38427;SDS011;24211;49.980;19.776;2023-09-19T00:19:08;10.05;;;5.95;;
38427;SDS011;24211;49.980;19.776;2023-09-19T00:21:36;7.95;;;5.43;;
38427;SDS011;24211;49.980;19.776;2023-09-19T00:24:04;10.32;;;6.13;;
38427;SDS011;24211;49.980;19.776;2023-09-19T00:26:32;10.27;;;6.07;;
38427;SDS011;24211;49.980;19.776;2023-09-19T00:29:00;9.80;;;5.70;;
38427;SDS011;24211;49.980;19.776;2023-09-19T00:31:35;9.07;;;5.78;;
38427;SDS011;24211;49.980;19.776;2023-09-19T00:34:04;8.93;;;5.60;;
38427;SDS011;24211;49.980;19.776;2023-09-19T00:36:32;11.05;;;5.95;;
38427;SDS011;24211;49.980;19.776;2023-09-19T00:39:00;10.75;;;6.60;;
38427;SDS011;24211;49.980;19.776;2023-09-19T00:41:27;10.55;;;6.43;;
38427;SDS011;24211;49.980;19.776;2023-09-19T00:43:57;12.73;;;6.00;;
38427;SDS011;24211;49.980;19.776;2023-09-19T00:46:27;21.52;;;11.52;;
38427;SDS011;24211;49.980;19.776;2023-09-19T00:48:55;12.88;;;7.90;;
38427;SDS011;24211;49.980;19.776;2023-09-19T00:51:23;14.52;;;8.07;;
38427;SDS011;24211;49.980;19.776;2023-09-19T00:53:52;12.95;;;7.90;;
38427;SDS011;24211;49.980;19.776;2023-09-19T00:56:20;11.38;;;7.32;;
38427;SDS011;24211;49.980;19.776;2023-09-19T00:58:47;13.52;;;7.72;;
38427;SDS011;24211;49.980;19.776;2023-09-19T01:01:15;10.73;;;7.13;;
38427;SDS011;24211;49.980;19.776;2023-09-19T01:03:44;11.48;;;7.15;;
38427;SDS011;24211;49.980;19.776;2023-09-19T01:06:12;13.98;;;7.20;;
38427;SDS011;24211;49.980;19.776;2023-09-19T01:08:40;11.52;;;7.10;;
38427;SDS011;24211;49.980;19.776;2023-09-19T01:13:48;11.38;;;7.28;;
38427;SDS011;24211;49.980;19.776;2023-09-19T01:17:03;10.52;;;6.18;;
38427;SDS011;24211;49.980;19.776;2023-09-19T01:20:11;10.20;;;6.03;;
38427;SDS011;24211;49.980;19.776;2023-09-19T01:23:11;11.45;;;6.32;;
38427;SDS011;24211;49.980;19.776;2023-09-19T01:26:05;10.30;;;6.25;;
38427;SDS011;24211;49.980;19.776;2023-09-19T01:28:58;9.82;;;6.20;;
38427;SDS011;24211;49.980;19.776;2023-09-19T01:32:04;9.98;;;6.28;;
38427;SDS011;24211;49.980;19.776;2023-09-19T01:34:56;10.07;;;6.22;;
38427;SDS011;24211;49.980;19.776;2023-09-19T01:37:30;9.98;;;6.32;;
38427;SDS011;24211;49.980;19.776;2023-09-19T01:39:59;10.10;;;6.45;;
38427;SDS011;24211;49.980;19.776;2023-09-19T01:42:54;11.18;;;6.07;;
38427;SDS011;24211;49.980;19.776;2023-09-19T01:48:33;9.85;;;5.95;;
38427;SDS011;24211;49.980;19.776;2023-09-19T01:54:26;9.98;;;5.72;;
38427;SDS011;24211;49.980;19.776;2023-09-19T01:59:47;8.45;;;5.65;;
38427;SDS011;24211;49.980;19.776;2023-09-19T02:02:21;9.18;;;5.93;;
38427;SDS011;24211;49.980;19.776;2023-09-19T02:04:50;10.70;;;6.00;;
38427;SDS011;24211;49.980;19.776;2023-09-19T02:07:17;9.25;;;5.55;;
38427;SDS011;24211;49.980;19.776;2023-09-19T02:09:45;9.10;;;5.28;;
38427;SDS011;24211;49.980;19.776;2023-09-19T02:12:13;8.95;;;5.47;;
38427;SDS011;24211;49.980;19.776;2023-09-19T02:14:42;8.80;;;5.78;;
38427;SDS011;24211;49.980;19.776;2023-09-19T02:17:09;9.68;;;5.97;;
38427;SDS011;24211;49.980;19.776;2023-09-19T02:19:39;10.13;;;6.18;;
38427;SDS011;24211;49.980;19.776;2023-09-19T02:22:08;8.25;;;5.32;;
38427;SDS011;24211;49.980;19.776;2023-09-19T02:24:37;8.43;;;5.43;;
38427;SDS011;24211;49.980;19.776;2023-09-19T02:27:05;9.00;;;4.78;;
38427;SDS011;24211;49.980;19.776;2023-09-19T02:29:32;11.85;;;5.68;;
38427;SDS011;24211;49.980;19.776;2023-09-19T02:32:02;11.48;;;6.80;;
38427;SDS011;24211;49.980;19.776;2023-09-19T02:34:31;11.07;;;6.90;;
38427;SDS011;24211;49.980;19.776;2023-09-19T02:36:59;12.32;;;7.35;;
38427;SDS011;24211;49.980;19.776;2023-09-19T02:39:26;11.63;;;7.35;;
38427;SDS011;24211;49.980;19.776;2023-09-19T02:41:54;10.90;;;6.60;;
38427;SDS011;24211;49.980;19.776;2023-09-19T02:44:21;10.27;;;6.70;;
38427;SDS011;24211;49.980;19.776;2023-09-19T02:46:50;10.02;;;6.20;;
38427;SDS011;24211;49.980;19.776;2023-09-19T02:49:17;10.23;;;7.07;;
38427;SDS011;24211;49.980;19.776;2023-09-19T02:51:45;10.02;;;6.18;;
38427;SDS011;24211;49.980;19.776;2023-09-19T02:54:14;11.00;;;6.63;;
38427;SDS011;24211;49.980;19.776;2023-09-19T02:56:42;11.73;;;6.47;;
38427;SDS011;24211;49.980;19.776;2023-09-19T02:59:10;10.85;;;6.57;;
38427;SDS011;24211;49.980;19.776;2023-09-19T03:01:37;9.77;;;6.10;;
38427;SDS011;24211;49.980;19.776;2023-09-19T03:04:05;9.30;;;6.13;;
38427;SDS011;24211;49.980;19.776;2023-09-19T03:06:38;10.55;;;6.35;;
38427;SDS011;24211;49.980;19.776;2023-09-19T03:09:05;10.05;;;6.28;;
38427;SDS011;24211;49.980;19.776;2023-09-19T03:11:39;10.05;;;6.18;;
38427;SDS011;24211;49.980;19.776;2023-09-19T03:14:07;9.23;;;6.03;;
38427;SDS011;24211;49.980;19.776;2023-09-19T03:16:34;10.48;;;5.78;;
38427;SDS011;24211;49.980;19.776;2023-09-19T03:19:04;8.98;;;5.50;;
38427;SDS011;24211;49.980;19.776;2023-09-19T03:21:32;9.30;;;5.88;;
38427;SDS011;24211;49.980;19.776;2023-09-19T03:23:59;9.40;;;6.05;;
38427;SDS011;24211;49.980;19.776;2023-09-19T03:26:26;8.73;;;5.57;;
38427;SDS011;24211;49.980;19.776;2023-09-19T03:28:54;9.43;;;5.78;;
38427;SDS011;24211;49.980;19.776;2023-09-19T03:31:21;8.93;;;5.55;;
38427;SDS011;24211;49.980;19.776;2023-09-19T03:33:48;9.57;;;5.70;;
38427;SDS011;24211;49.980;19.776;2023-09-19T03:36:16;9.57;;;5.78;;
38427;SDS011;24211;49.980;19.776;2023-09-19T03:38:43;8.32;;;5.18;;
38427;SDS011;24211;49.980;19.776;2023-09-19T03:41:10;8.50;;;5.45;;
38427;SDS011;24211;49.980;19.776;2023-09-19T03:43:40;9.07;;;5.85;;
38427;SDS011;24211;49.980;19.776;2023-09-19T03:46:08;9.68;;;5.65;;
38427;SDS011;24211;49.980;19.776;2023-09-19T03:48:38;7.43;;;5.20;;
38427;SDS011;24211;49.980;19.776;2023-09-19T03:51:05;9.50;;;5.32;;
38427;SDS011;24211;49.980;19.776;2023-09-19T03:53:32;7.95;;;5.20;;
38427;SDS011;24211;49.980;19.776;2023-09-19T03:55:59;8.98;;;5.43;;
38427;SDS011;24211;49.980;19.776;2023-09-19T03:58:30;8.25;;;5.13;;
38427;SDS011;24211;49.980;19.776;2023-09-19T04:00:58;9.35;;;5.10;;
38427;SDS011;24211;49.980;19.776;2023-09-19T04:03:27;8.18;;;5.05;;
38427;SDS011;24211;49.980;19.776;2023-09-19T04:06:02;8.75;;;4.90;;
38427;SDS011;24211;49.980;19.776;2023-09-19T04:08:29;8.52;;;5.07;;
38427;SDS011;24211;49.980;19.776;2023-09-19T04:10:57;10.00;;;5.20;;
38427;SDS011;24211;49.980;19.776;2023-09-19T04:13:24;7.82;;;4.97;;
38427;SDS011;24211;49.980;19.776;2023-09-19T04:15:52;7.57;;;4.90;;
38427;SDS011;24211;49.980;19.776;2023-09-19T04:18:19;8.32;;;5.00;;
38427;SDS011;24211;49.980;19.776;2023-09-19T04:20:48;7.90;;;4.90;;
38427;SDS011;24211;49.980;19.776;2023-09-19T04:23:16;7.28;;;4.75;;
38427;SDS011;24211;49.980;19.776;2023-09-19T04:25:46;8.38;;;4.70;;
38427;SDS011;24211;49.980;19.776;2023-09-19T04:28:14;8.15;;;4.63;;
38427;SDS011;24211;49.980;19.776;2023-09-19T04:30:42;7.80;;;4.78;;
38427;SDS011;24211;49.980;19.776;2023-09-19T04:33:09;7.03;;;4.70;;
38427;SDS011;24211;49.980;19.776;2023-09-19T04:35:38;7.10;;;4.70;;
38427;SDS011;24211;49.980;19.776;2023-09-19T04:38:05;8.32;;;4.93;;
38427;SDS011;24211;49.980;19.776;2023-09-19T04:40:33;7.25;;;4.70;;
38427;SDS011;24211;49.980;19.776;2023-09-19T04:43:02;9.15;;;5.03;;
38427;SDS011;24211;49.980;19.776;2023-09-19T04:45:29;7.47;;;4.80;;
38427;SDS011;24211;49.980;19.776;2023-09-19T04:47:56;9.05;;;4.60;;
38427;SDS011;24211;49.980;19.776;2023-09-19T04:50:24;8.35;;;5.10;;
38427;SDS011;24211;49.980;19.776;2023-09-19T04:52:53;7.57;;;4.68;;
38427;SDS011;24211;49.980;19.776;2023-09-19T04:55:20;8.00;;;4.85;;
38427;SDS011;24211;49.980;19.776;2023-09-19T04:57:48;8.30;;;4.95;;
38427;SDS011;24211;49.980;19.776;2023-09-19T05:00:18;7.80;;;5.00;;
38427;SDS011;24211;49.980;19.776;2023-09-19T05:02:50;8.48;;;5.10;;
38427;SDS011;24211;49.980;19.776;2023-09-19T05:05:20;9.35;;;5.28;;
38427;SDS011;24211;49.980;19.776;2023-09-19T05:07:49;8.90;;;5.60;;
38427;SDS011;24211;49.980;19.776;2023-09-19T05:10:18;8.57;;;5.35;;
38427;SDS011;24211;49.980;19.776;2023-09-19T05:12:45;9.65;;;5.25;;
38427;SDS011;24211;49.980;19.776;2023-09-19T05:15:15;9.38;;;5.45;;
38427;SDS011;24211;49.980;19.776;2023-09-19T05:17:50;8.18;;;5.07;;
38427;SDS011;24211;49.980;19.776;2023-09-19T05:20:24;7.80;;;4.82;;
38427;SDS011;24211;49.980;19.776;2023-09-19T05:23:03;7.60;;;4.95;;
38427;SDS011;24211;49.980;19.776;2023-09-19T05:25:36;8.10;;;4.80;;
38427;SDS011;24211;49.980;19.776;2023-09-19T05:28:06;8.02;;;4.82;;
38427;SDS011;24211;49.980;19.776;2023-09-19T05:30:39;8.82;;;4.88;;
38427;SDS011;24211;49.980;19.776;2023-09-19T05:33:07;7.95;;;5.18;;
38427;SDS011;24211;49.980;19.776;2023-09-19T05:35:35;9.00;;;5.68;;
38427;SDS011;24211;49.980;19.776;2023-09-19T05:38:08;10.07;;;5.88;;
38427;SDS011;24211;49.980;19.776;2023-09-19T05:40:36;7.50;;;5.15;;
38427;SDS011;24211;49.980;19.776;2023-09-19T05:43:05;7.75;;;5.10;;
38427;SDS011;24211;49.980;19.776;2023-09-19T05:45:32;7.78;;;4.80;;
38427;SDS011;24211;49.980;19.776;2023-09-19T05:50:40;9.52;;;5.47;;
38427;SDS011;24211;49.980;19.776;2023-09-19T05:53:08;8.30;;;5.10;;
38427;SDS011;24211;49.980;19.776;2023-09-19T05:55:38;8.68;;;5.05;;
38427;SDS011;24211;49.980;19.776;2023-09-19T05:58:06;8.10;;;5.20;;
38427;SDS011;24211;49.980;19.776;2023-09-19T06:00:34;8.05;;;5.10;;
38427;SDS011;24211;49.980;19.776;2023-09-19T06:03:04;8.48;;;5.18;;
38427;SDS011;24211;49.980;19.776;2023-09-19T06:05:32;10.23;;;6.00;;
38427;SDS011;24211;49.980;19.776;2023-09-19T06:07:59;9.30;;;5.32;;
38427;SDS011;24211;49.980;19.776;2023-09-19T06:10:28;9.77;;;6.07;;
38427;SDS011;24211;49.980;19.776;2023-09-19T06:12:56;9.85;;;6.20;;
38427;SDS011;24211;49.980;19.776;2023-09-19T06:15:25;9.95;;;5.75;;
38427;SDS011;24211;49.980;19.776;2023-09-19T06:17:53;9.90;;;6.00;;
38427;SDS011;24211;49.980;19.776;2023-09-19T06:20:23;10.43;;;5.68;;
38427;SDS011;24211;49.980;19.776;2023-09-19T06:22:51;9.63;;;5.68;;
38427;SDS011;24211;49.980;19.776;2023-09-19T06:25:21;9.48;;;6.00;;
38427;SDS011;24211;49.980;19.776;2023-09-19T06:27:49;9.13;;;5.40;;
38427;SDS011;24211;49.980;19.776;2023-09-19T06:30:22;10.80;;;5.95;;
38427;SDS011;24211;49.980;19.776;2023-09-19T06:32:55;9.75;;;5.70;;
38427;SDS011;24211;49.980;19.776;2023-09-19T06:35:24;9.73;;;5.53;;
38427;SDS011;24211;49.980;19.776;2023-09-19T06:37:53;8.65;;;5.38;;
38427;SDS011;24211;49.980;19.776;2023-09-19T06:40:21;9.45;;;5.35;;
38427;SDS011;24211;49.980;19.776;2023-09-19T06:42:50;8.75;;;5.40;;
38427;SDS011;24211;49.980;19.776;2023-09-19T06:45:21;9.27;;;5.68;;
38427;SDS011;24211;49.980;19.776;2023-09-19T06:47:49;8.02;;;4.93;;
38427;SDS011;24211;49.980;19.776;2023-09-19T06:50:20;10.60;;;5.35;;
38427;SDS011;24211;49.980;19.776;2023-09-19T06:52:52;9.93;;;5.65;;
38427;SDS011;24211;49.980;19.776;2023-09-19T06:55:22;8.45;;;5.38;;
38427;SDS011;24211;49.980;19.776;2023-09-19T06:57:55;9.68;;;5.82;;
38427;SDS011;24211;49.980;19.776;2023-09-19T07:00:22;9.32;;;5.55;;
38427;SDS011;24211;49.980;19.776;2023-09-19T07:05:39;10.70;;;6.60;;
38427;SDS011;24211;49.980;19.776;2023-09-19T07:11:06;8.93;;;5.50;;
38427;SDS011;24211;49.980;19.776;2023-09-19T07:14:07;8.95;;;5.30;;
38427;SDS011;24211;49.980;19.776;2023-09-19T07:16:38;7.13;;;4.85;;
38427;SDS011;24211;49.980;19.776;2023-09-19T07:19:09;8.30;;;5.15;;
38427;SDS011;24211;49.980;19.776;2023-09-19T07:21:36;9.05;;;5.50;;
38427;SDS011;24211;49.980;19.776;2023-09-19T07:24:26;8.98;;;5.80;;
38427;SDS011;24211;49.980;19.776;2023-09-19T07:30:17;8.65;;;5.47;;
38427;SDS011;24211;49.980;19.776;2023-09-19T07:32:45;9.90;;;5.70;;
38427;SDS011;24211;49.980;19.776;2023-09-19T07:35:12;8.80;;;5.03;;
38427;SDS011;24211;49.980;19.776;2023-09-19T07:37:40;9.45;;;6.63;;
38427;SDS011;24211;49.980;19.776;2023-09-19T07:40:07;11.52;;;6.05;;
38427;SDS011;24211;49.980;19.776;2023-09-19T07:42:36;10.52;;;6.32;;
38427;SDS011;24211;49.980;19.776;2023-09-19T07:45:05;9.68;;;6.18;;
38427;SDS011;24211;49.980;19.776;2023-09-19T07:47:34;8.70;;;4.93;;
38427;SDS011;24211;49.980;19.776;2023-09-19T07:50:03;9.18;;;4.88;;
38427;SDS011;24211;49.980;19.776;2023-09-19T07:52:31;6.40;;;3.90;;
38427;SDS011;24211;49.980;19.776;2023-09-19T07:55:00;6.25;;;3.25;;
38427;SDS011;24211;49.980;19.776;2023-09-19T07:57:32;7.40;;;3.38;;
38427;SDS011;24211;49.980;19.776;2023-09-19T08:00:01;5.60;;;2.85;;
38427;SDS011;24211;49.980;19.776;2023-09-19T08:02:37;6.55;;;2.90;;
38427;SDS011;24211;49.980;19.776;2023-09-19T08:05:05;6.00;;;2.90;;
38427;SDS011;24211;49.980;19.776;2023-09-19T08:07:38;5.45;;;2.78;;
38427;SDS011;24211;49.980;19.776;2023-09-19T08:10:07;5.80;;;2.50;;
38427;SDS011;24211;49.980;19.776;2023-09-19T08:12:39;5.88;;;2.80;;
38427;SDS011;24211;49.980;19.776;2023-09-19T08:15:14;6.68;;;3.13;;
38427;SDS011;24211;49.980;19.776;2023-09-19T08:17:43;7.20;;;2.97;;
38427;SDS011;24211;49.980;19.776;2023-09-19T08:20:11;5.63;;;2.80;;
38427;SDS011;24211;49.980;19.776;2023-09-19T08:25:21;5.85;;;3.05;;
38427;SDS011;24211;49.980;19.776;2023-09-19T08:27:52;5.95;;;2.85;;
38427;SDS011;24211;49.980;19.776;2023-09-19T08:30:24;5.82;;;3.10;;
38427;SDS011;24211;49.980;19.776;2023-09-19T08:33:00;6.78;;;3.08;;
38427;SDS011;24211;49.980;19.776;2023-09-19T08:35:28;7.40;;;3.25;;
38427;SDS011;24211;49.980;19.776;2023-09-19T08:37:55;7.45;;;3.03;;
38427;SDS011;24211;49.980;19.776;2023-09-19T08:40:23;6.28;;;3.00;;
38427;SDS011;24211;49.980;19.776;2023-09-19T08:42:55;6.25;;;3.10;;
38427;SDS011;24211;49.980;19.776;2023-09-19T08:45:24;5.32;;;3.10;;
38427;SDS011;24211;49.980;19.776;2023-09-19T08:48:00;6.53;;;2.90;;
38427;SDS011;24211;49.980;19.776;2023-09-19T08:50:30;7.07;;;2.97;;
38427;SDS011;24211;49.980;19.776;2023-09-19T08:53:01;7.90;;;3.50;;
38427;SDS011;24211;49.980;19.776;2023-09-19T08:55:41;7.55;;;3.10;;
38427;SDS011;24211;49.980;19.776;2023-09-19T08:58:14;5.80;;;3.25;;
38427;SDS011;24211;49.980;19.776;2023-09-19T09:00:51;6.47;;;2.88;;
38427;SDS011;24211;49.980;19.776;2023-09-19T09:03:21;6.13;;;3.10;;
38427;SDS011;24211;49.980;19.776;2023-09-19T09:05:49;6.70;;;3.20;;
38427;SDS011;24211;49.980;19.776;2023-09-19T09:08:19;6.53;;;3.28;;
38427;SDS011;24211;49.980;19.776;2023-09-19T09:10:48;5.72;;;3.17;;
38427;SDS011;24211;49.980;19.776;2023-09-19T09:13:17;6.35;;;3.28;;
38427;SDS011;24211;49.980;19.776;2023-09-19T09:15:44;7.40;;;3.00;;
38427;SDS011;24211;49.980;19.776;2023-09-19T09:18:12;6.63;;;3.20;;
38427;SDS011;24211;49.980;19.776;2023-09-19T09:20:40;5.95;;;3.13;;
38427;SDS011;24211;49.980;19.776;2023-09-19T09:23:07;6.47;;;2.78;;
38427;SDS011;24211;49.980;19.776;2023-09-19T09:25:53;6.68;;;2.78;;
38427;SDS011;24211;49.980;19.776;2023-09-19T09:28:44;4.65;;;2.47;;
38427;SDS011;24211;49.980;19.776;2023-09-19T09:31:24;7.47;;;3.00;;
38427;SDS011;24211;49.980;19.776;2023-09-19T09:33:55;4.80;;;2.60;;
38427;SDS011;24211;49.980;19.776;2023-09-19T09:36:37;5.53;;;2.78;;
38427;SDS011;24211;49.980;19.776;2023-09-19T09:39:14;5.47;;;2.83;;
38427;SDS011;24211;49.980;19.776;2023-09-19T09:41:45;6.28;;;2.80;;
38427;SDS011;24211;49.980;19.776;2023-09-19T09:44:26;5.78;;;2.70;;
38427;SDS011;24211;49.980;19.776;2023-09-19T09:47:10;5.15;;;2.63;;
38427;SDS011;24211;49.980;19.776;2023-09-19T09:49:56;6.85;;;2.60;;
38427;SDS011;24211;49.980;19.776;2023-09-19T09:52:44;5.65;;;2.75;;
38427;SDS011;24211;49.980;19.776;2023-09-19T09:55:13;4.63;;;2.50;;
38427;SDS011;24211;49.980;19.776;2023-09-19T09:57:40;5.60;;;2.20;;
38427;SDS011;24211;49.980;19.776;2023-09-19T10:00:08;4.13;;;2.28;;
38427;SDS011;24211;49.980;19.776;2023-09-19T10:02:40;5.50;;;2.22;;
38427;SDS011;24211;49.980;19.776;2023-09-19T10:05:12;6.80;;;2.60;;
38427;SDS011;24211;49.980;19.776;2023-09-19T10:07:55;4.07;;;2.03;;
38427;SDS011;24211;49.980;19.776;2023-09-19T10:10:31;3.88;;;1.90;;
38427;SDS011;24211;49.980;19.776;2023-09-19T10:13:10;4.28;;;2.22;;
38427;SDS011;24211;49.980;19.776;2023-09-19T10:15:42;4.78;;;2.45;;
38427;SDS011;24211;49.980;19.776;2023-09-19T10:18:22;4.32;;;2.20;;
38427;SDS011;24211;49.980;19.776;2023-09-19T10:20:53;4.45;;;2.20;;
38427;SDS011;24211;49.980;19.776;2023-09-19T10:23:23;4.97;;;2.40;;
38427;SDS011;24211;49.980;19.776;2023-09-19T10:25:56;4.53;;;2.20;;
38427;SDS011;24211;49.980;19.776;2023-09-19T10:28:29;4.70;;;2.13;;
38427;SDS011;24211;49.980;19.776;2023-09-19T10:30:57;3.78;;;1.90;;
38427;SDS011;24211;49.980;19.776;2023-09-19T10:33:27;4.18;;;2.22;;
38427;SDS011;24211;49.980;19.776;2023-09-19T10:36:04;6.07;;;2.22;;
38427;SDS011;24211;49.980;19.776;2023-09-19T10:38:32;5.40;;;2.67;;
38427;SDS011;24211;49.980;19.776;2023-09-19T10:41:02;3.38;;;1.80;;
38427;SDS011;24211;49.980;19.776;2023-09-19T10:43:32;4.32;;;2.20;;
38427;SDS011;24211;49.980;19.776;2023-09-19T10:46:03;3.70;;;2.13;;
38427;SDS011;24211;49.980;19.776;2023-09-19T10:48:38;4.47;;;2.20;;
38427;SDS011;24211;49.980;19.776;2023-09-19T10:51:08;4.90;;;1.92;;
38427;SDS011;24211;49.980;19.776;2023-09-19T10:53:42;4.45;;;2.22;;
38427;SDS011;24211;49.980;19.776;2023-09-19T10:56:19;3.42;;;2.00;;
38427;SDS011;24211;49.980;19.776;2023-09-19T10:59:07;3.38;;;1.92;;
38427;SDS011;24211;49.980;19.776;2023-09-19T11:01:42;5.90;;;1.98;;
38427;SDS011;24211;49.980;19.776;2023-09-19T11:07:09;5.20;;;2.13;;
38427;SDS011;24211;49.980;19.776;2023-09-19T11:09:51;3.13;;;1.70;;
38427;SDS011;24211;49.980;19.776;2023-09-19T11:39:40;4.47;;;1.70;;
38427;SDS011;24211;49.980;19.776;2023-09-19T11:42:41;2.80;;;1.42;;
38427;SDS011;24211;49.980;19.776;2023-09-19T11:48:07;4.55;;;1.70;;
38427;SDS011;24211;49.980;19.776;2023-09-19T11:50:39;3.55;;;1.55;;
38427;SDS011;24211;49.980;19.776;2023-09-19T11:53:13;3.65;;;1.58;;
38427;SDS011;24211;49.980;19.776;2023-09-19T11:55:42;4.13;;;1.50;;
38427;SDS011;24211;49.980;19.776;2023-09-19T11:58:11;2.88;;;1.50;;
38427;SDS011;24211;49.980;19.776;2023-09-19T12:03:13;3.25;;;1.50;;
38427;SDS011;24211;49.980;19.776;2023-09-19T12:05:41;3.63;;;1.63;;
38427;SDS011;24211;49.980;19.776;2023-09-19T12:08:09;5.03;;;1.73;;
38427;SDS011;24211;49.980;19.776;2023-09-19T12:10:47;3.65;;;1.30;;
38427;SDS011;24211;49.980;19.776;2023-09-19T12:13:16;3.13;;;1.63;;
38427;SDS011;24211;49.980;19.776;2023-09-19T12:15:45;2.88;;;1.38;;
38427;SDS011;24211;49.980;19.776;2023-09-19T12:18:30;3.20;;;1.42;;
38427;SDS011;24211;49.980;19.776;2023-09-19T12:20:57;2.70;;;1.50;;
38427;SDS011;24211;49.980;19.776;2023-09-19T12:23:25;3.45;;;1.60;;
38427;SDS011;24211;49.980;19.776;2023-09-19T12:25:53;3.10;;;1.60;;
38427;SDS011;24211;49.980;19.776;2023-09-19T12:28:25;3.00;;;1.57;;
38427;SDS011;24211;49.980;19.776;2023-09-19T12:31:05;5.57;;;1.70;;
38427;SDS011;24211;49.980;19.776;2023-09-19T12:33:35;4.80;;;1.50;;
38427;SDS011;24211;49.980;19.776;2023-09-19T12:36:22;2.67;;;1.58;;
38427;SDS011;24211;49.980;19.776;2023-09-19T12:38:57;4.93;;;1.67;;
38427;SDS011;24211;49.980;19.776;2023-09-19T12:41:27;3.58;;;1.70;;
38427;SDS011;24211;49.980;19.776;2023-09-19T12:43:54;4.43;;;1.55;;
38427;SDS011;24211;49.980;19.776;2023-09-19T12:46:22;4.25;;;1.60;;
38427;SDS011;24211;49.980;19.776;2023-09-19T12:49:35;2.83;;;1.70;;
38427;SDS011;24211;49.980;19.776;2023-09-19T12:51:46;3.03;;;1.38;;
38427;SDS011;24211;49.980;19.776;2023-09-19T12:54:14;3.45;;;1.73;;
38427;SDS011;24211;49.980;19.776;2023-09-19T12:56:45;3.35;;;1.90;;
38427;SDS011;24211;49.980;19.776;2023-09-19T12:59:16;3.40;;;1.55;;
38427;SDS011;24211;49.980;19.776;2023-09-19T13:01:43;5.22;;;1.92;;
38427;SDS011;24211;49.980;19.776;2023-09-19T13:04:16;3.97;;;1.80;;
38427;SDS011;24211;49.980;19.776;2023-09-19T13:06:47;5.82;;;2.15;;
38427;SDS011;24211;49.980;19.776;2023-09-19T13:09:20;3.95;;;2.20;;
38427;SDS011;24211;49.980;19.776;2023-09-19T13:11:54;4.68;;;2.20;;
38427;SDS011;24211;49.980;19.776;2023-09-19T13:14:26;3.85;;;1.88;;
38427;SDS011;24211;49.980;19.776;2023-09-19T13:19:43;3.08;;;1.90;;
38427;SDS011;24211;49.980;19.776;2023-09-19T13:22:58;3.88;;;1.88;;
38427;SDS011;24211;49.980;19.776;2023-09-19T13:25:16;4.07;;;1.92;;
38427;SDS011;24211;49.980;19.776;2023-09-19T13:27:52;4.32;;;2.13;;
38427;SDS011;24211;49.980;19.776;2023-09-19T13:30:23;5.00;;;2.20;;
38427;SDS011;24211;49.980;19.776;2023-09-19T13:33:03;4.15;;;2.10;;
38427;SDS011;24211;49.980;19.776;2023-09-19T13:35:38;4.32;;;2.40;;
38427;SDS011;24211;49.980;19.776;2023-09-19T13:38:08;5.97;;;2.20;;
38427;SDS011;24211;49.980;19.776;2023-09-19T13:40:36;4.32;;;2.13;;
38427;SDS011;24211;49.980;19.776;2023-09-19T13:43:09;4.00;;;2.10;;
38427;SDS011;24211;49.980;19.776;2023-09-19T13:45:37;4.20;;;2.30;;
38427;SDS011;24211;49.980;19.776;2023-09-19T13:48:05;4.97;;;2.47;;
38427;SDS011;24211;49.980;19.776;2023-09-19T13:50:32;3.90;;;2.20;;
38427;SDS011;24211;49.980;19.776;2023-09-19T13:53:03;6.72;;;2.08;;
38427;SDS011;24211;49.980;19.776;2023-09-19T13:55:30;4.80;;;2.13;;
38427;SDS011;24211;49.980;19.776;2023-09-19T13:57:57;5.05;;;2.17;;
38427;SDS011;24211;49.980;19.776;2023-09-19T14:00:25;3.95;;;2.30;;
38427;SDS011;24211;49.980;19.776;2023-09-19T14:02:52;3.85;;;2.20;;
38427;SDS011;24211;49.980;19.776;2023-09-19T14:05:20;4.00;;;2.40;;
38427;SDS011;24211;49.980;19.776;2023-09-19T14:07:48;3.70;;;1.90;;
38427;SDS011;24211;49.980;19.776;2023-09-19T14:10:16;6.53;;;2.58;;
38427;SDS011;24211;49.980;19.776;2023-09-19T14:12:44;3.55;;;2.00;;
38427;SDS011;24211;49.980;19.776;2023-09-19T14:15:12;5.32;;;2.10;;
38427;SDS011;24211;49.980;19.776;2023-09-19T14:17:40;5.10;;;2.60;;
38427;SDS011;24211;49.980;19.776;2023-09-19T14:20:14;4.15;;;2.38;;
38427;SDS011;24211;49.980;19.776;2023-09-19T14:22:42;6.15;;;2.40;;
38427;SDS011;24211;49.980;19.776;2023-09-19T14:25:09;4.40;;;2.45;;
38427;SDS011;24211;49.980;19.776;2023-09-19T14:27:36;3.47;;;2.10;;
38427;SDS011;24211;49.980;19.776;2023-09-19T14:30:05;7.20;;;2.47;;
38427;SDS011;24211;49.980;19.776;2023-09-19T14:32:33;5.32;;;2.80;;
38427;SDS011;24211;49.980;19.776;2023-09-19T14:35:00;5.45;;;2.95;;
38427;SDS011;24211;49.980;19.776;2023-09-19T14:37:29;5.07;;;2.63;;
38427;SDS011;24211;49.980;19.776;2023-09-19T14:39:58;4.70;;;2.67;;
38427;SDS011;24211;49.980;19.776;2023-09-19T14:42:25;4.45;;;2.53;;
38427;SDS011;24211;49.980;19.776;2023-09-19T14:44:52;5.97;;;2.70;;
38427;SDS011;24211;49.980;19.776;2023-09-19T14:47:19;6.15;;;2.58;;
38427;SDS011;24211;49.980;19.776;2023-09-19T14:49:47;5.35;;;2.70;;
38427;SDS011;24211;49.980;19.776;2023-09-19T14:52:14;4.75;;;2.60;;
38427;SDS011;24211;49.980;19.776;2023-09-19T14:54:43;5.38;;;2.80;;
38427;SDS011;24211;49.980;19.776;2023-09-19T14:57:10;6.20;;;2.65;;
38427;SDS011;24211;49.980;19.776;2023-09-19T14:59:38;5.60;;;2.60;;
38427;SDS011;24211;49.980;19.776;2023-09-19T15:02:05;4.85;;;2.42;;
38427;SDS011;24211;49.980;19.776;2023-09-19T15:04:33;3.92;;;2.42;;
38427;SDS011;24211;49.980;19.776;2023-09-19T15:07:02;4.57;;;2.55;;
38427;SDS011;24211;49.980;19.776;2023-09-19T15:09:30;5.28;;;2.53;;
38427;SDS011;24211;49.980;19.776;2023-09-19T15:11:59;6.57;;;2.72;;
38427;SDS011;24211;49.980;19.776;2023-09-19T15:14:30;6.18;;;2.47;;
38427;SDS011;24211;49.980;19.776;2023-09-19T15:16:57;5.60;;;2.38;;
38427;SDS011;24211;49.980;19.776;2023-09-19T15:19:24;4.00;;;2.20;;
38427;SDS011;24211;49.980;19.776;2023-09-19T15:21:52;4.50;;;2.47;;
38427;SDS011;24211;49.980;19.776;2023-09-19T15:24:19;5.93;;;2.50;;
38427;SDS011;24211;49.980;19.776;2023-09-19T15:26:46;4.03;;;2.25;;
38427;SDS011;24211;49.980;19.776;2023-09-19T15:29:14;4.95;;;2.17;;
38427;SDS011;24211;49.980;19.776;2023-09-19T15:31:42;3.97;;;2.30;;
38427;SDS011;24211;49.980;19.776;2023-09-19T15:34:10;3.75;;;2.20;;
38427;SDS011;24211;49.980;19.776;2023-09-19T15:36:40;4.30;;;2.10;;
38427;SDS011;24211;49.980;19.776;2023-09-19T15:39:08;4.05;;;2.22;;
38427;SDS011;24211;49.980;19.776;2023-09-19T15:41:39;3.33;;;1.80;;
38427;SDS011;24211;49.980;19.776;2023-09-19T15:44:12;3.80;;;2.05;;
38427;SDS011;24211;49.980;19.776;2023-09-19T15:46:42;3.40;;;1.80;;
38427;SDS011;24211;49.980;19.776;2023-09-19T15:49:11;3.45;;;2.00;;
38427;SDS011;24211;49.980;19.776;2023-09-19T15:51:39;4.05;;;2.00;;
38427;SDS011;24211;49.980;19.776;2023-09-19T15:54:08;2.55;;;1.63;;
38427;SDS011;24211;49.980;19.776;2023-09-19T15:56:40;2.83;;;1.60;;
38427;SDS011;24211;49.980;19.776;2023-09-19T15:59:12;2.60;;;1.55;;
38427;SDS011;24211;49.980;19.776;2023-09-19T16:01:40;3.20;;;1.77;;